createdAt,value
2022-10-23T00:01:34.976Z,98293.00
2022-10-23T00:04:16.132Z,98303.50
2022-10-23T00:06:44.269Z,98296.34
2022-10-23T00:09:13.422Z,98292.41
2022-10-23T00:11:41.747Z,98301.91
2022-10-23T00:14:09.327Z,98294.72
2022-10-23T00:16:37.056Z,98290.78
2022-10-23T00:19:04.430Z,98287.09
2022-10-23T00:21:31.872Z,98297.19
2022-10-23T00:23:59.174Z,98290.97
2022-10-23T00:26:26.616Z,98281.28
2022-10-23T00:28:54.711Z,98283.56
2022-10-23T00:31:23.209Z,98287.84
2022-10-23T00:33:51.140Z,98286.66
2022-10-23T00:36:20.788Z,98289.19
2022-10-23T00:38:48.673Z,98284.97
2022-10-23T00:41:28.595Z,98294.94
2022-10-23T00:44:30.519Z,98289.78
2022-10-23T00:46:59.556Z,98285.09
2022-10-23T00:49:28.426Z,98284.56
2022-10-23T00:52:01.519Z,98290.56
2022-10-23T00:54:32.678Z,98285.16
2022-10-23T00:57:01.996Z,98291.69
2022-10-23T00:59:29.677Z,98293.44
2022-10-23T01:01:57.033Z,98294.16
2022-10-23T01:04:25.523Z,98291.97
2022-10-23T01:06:55.665Z,98294.16
2022-10-23T01:09:26.567Z,98298.44
2022-10-23T01:12:02.551Z,98298.00
2022-10-23T01:14:38.098Z,98298.75
2022-10-23T01:17:20.239Z,98298.75
2022-10-23T01:20:13.346Z,98294.53
2022-10-23T01:22:59.133Z,98292.31
2022-10-23T01:25:29.216Z,98287.63
2022-10-23T01:28:01.421Z,98286.16
2022-10-23T01:30:29.391Z,98290.44
2022-10-23T01:33:00.876Z,98299.91
2022-10-23T01:35:32.417Z,98294.44
2022-10-23T01:38:20.144Z,98288.44
2022-10-23T01:41:03.013Z,98288.94
2022-10-23T01:43:42.401Z,98283.47
2022-10-23T01:46:14.339Z,98283.25
2022-10-23T01:48:44.371Z,98286.22
2022-10-23T01:51:14.164Z,98281.25
2022-10-23T01:53:43.836Z,98277.31
2022-10-23T01:56:13.402Z,98279.09
2022-10-23T01:58:43.200Z,98276.66
2022-10-23T02:01:11.778Z,98279.91
2022-10-23T02:03:39.496Z,98278.66
2022-10-23T02:06:07.016Z,98286.41
2022-10-23T02:08:34.357Z,98281.44
2022-10-23T02:11:14.638Z,98279.97
2022-10-23T02:14:22.340Z,98274.03
2022-10-23T02:16:54.865Z,98267.09
2022-10-23T02:19:45.927Z,98261.66
2022-10-23T02:22:37.475Z,98269.66
2022-10-23T02:25:14.495Z,98264.19
2022-10-23T02:27:48.187Z,98260.72
2022-10-23T02:30:17.670Z,98263.22
2022-10-23T02:32:50.604Z,98254.78
2022-10-23T02:35:19.621Z,98256.78
2022-10-23T02:37:57.905Z,98261.56
2022-10-23T02:40:42.055Z,98256.38
2022-10-23T02:43:14.578Z,98253.63
2022-10-23T02:45:52.947Z,98254.16
2022-10-23T02:48:29.716Z,98253.94
2022-10-23T02:51:11.711Z,98249.75
2022-10-23T02:53:44.933Z,98248.06
2022-10-23T02:56:33.457Z,98247.81
2022-10-23T02:59:11.278Z,98236.66
2022-10-23T03:02:15.374Z,98233.00
2022-10-23T03:04:42.990Z,98229.03
2022-10-23T03:07:12.142Z,98234.03
2022-10-23T03:09:39.515Z,98235.81
2022-10-23T03:12:06.555Z,98232.31
2022-10-23T03:14:33.586Z,98227.38
2022-10-23T03:17:00.629Z,98231.13
2022-10-23T03:19:27.729Z,98234.38
2022-10-23T03:21:54.761Z,98227.66
2022-10-23T03:24:21.816Z,98232.66
2022-10-23T03:26:48.921Z,98236.94
2022-10-23T03:29:16.118Z,98233.44
2022-10-23T03:31:43.262Z,98238.19
2022-10-23T03:34:11.489Z,98230.72
2022-10-23T03:36:38.561Z,98235.94
2022-10-23T03:39:05.686Z,98234.44
2022-10-23T03:41:32.761Z,98236.22
2022-10-23T03:44:00.040Z,98232.53
2022-10-23T03:46:27.354Z,98234.00
2022-10-23T03:48:56.780Z,98222.84
2022-10-23T03:51:24.041Z,98216.13
2022-10-23T03:53:51.151Z,98218.34
2022-10-23T03:56:18.220Z,98211.19
2022-10-23T03:58:45.591Z,98212.19
2022-10-23T04:01:12.907Z,98222.38
2022-10-23T04:03:39.998Z,98226.59
2022-10-23T04:06:07.354Z,98214.91
2022-10-23T04:08:34.452Z,98215.44
2022-10-23T04:11:01.617Z,98215.72
2022-10-23T04:13:28.649Z,98217.47
2022-10-23T04:15:55.729Z,98233.63
2022-10-23T04:18:22.783Z,98232.88
2022-10-23T04:20:50.359Z,98230.91
2022-10-23T04:23:17.733Z,98218.94
2022-10-23T04:25:44.792Z,98224.91
2022-10-23T04:28:11.970Z,98218.72
2022-10-23T04:30:39.358Z,98219.47
2022-10-23T04:33:06.419Z,98216.72
2022-10-23T04:35:33.654Z,98219.22
2022-10-23T04:38:00.722Z,98215.53
2022-10-23T04:40:27.787Z,98218.00
2022-10-23T04:42:54.838Z,98217.28
2022-10-23T04:45:21.909Z,98229.97
2022-10-23T04:47:48.972Z,98229.22
2022-10-23T04:50:16.362Z,98227.75
2022-10-23T04:52:43.816Z,98231.25
2022-10-23T04:55:11.130Z,98228.75
2022-10-23T04:57:38.243Z,98227.25
2022-10-23T05:00:07.776Z,98221.06
2022-10-23T05:02:34.846Z,98220.84
2022-10-23T05:05:01.933Z,98225.81
2022-10-23T05:07:28.992Z,98227.56
2022-10-23T05:09:56.182Z,98218.66
2022-10-23T05:12:25.478Z,98225.88
2022-10-23T05:14:53.047Z,98226.38
2022-10-23T05:17:33.290Z,98222.66
2022-10-23T05:20:03.173Z,98208.28
2022-10-23T05:22:32.992Z,98210.78
2022-10-23T05:25:02.212Z,98211.53
2022-10-23T05:27:29.312Z,98202.16
2022-10-23T05:29:56.390Z,98215.06
2022-10-23T05:32:25.702Z,98214.81
2022-10-23T05:34:53.603Z,98215.56
2022-10-23T05:37:21.044Z,98215.09
2022-10-23T05:39:48.267Z,98211.59
2022-10-23T05:42:15.520Z,98216.09
2022-10-23T05:44:42.815Z,98209.88
2022-10-23T05:47:09.996Z,98201.44
2022-10-23T05:49:37.322Z,98201.69
2022-10-23T05:52:04.660Z,98211.09
2022-10-23T05:54:31.989Z,98220.81
2022-10-23T05:56:59.219Z,98221.53
2022-10-23T05:59:26.296Z,98209.63
2022-10-23T06:01:53.396Z,98223.03
2022-10-23T06:04:20.745Z,98225.03
2022-10-23T06:06:47.813Z,98221.78
2022-10-23T06:09:15.698Z,98209.63
2022-10-23T06:11:43.318Z,98212.13
2022-10-23T06:14:10.613Z,98204.91
2022-10-23T06:16:37.714Z,98215.59
2022-10-23T06:19:04.759Z,98214.13
2022-10-23T06:21:31.781Z,98221.78
2022-10-23T06:23:58.824Z,98227.00
2022-10-23T06:26:26.307Z,98228.72
2022-10-23T06:28:53.661Z,98217.31
2022-10-23T06:31:23.749Z,98223.00
2022-10-23T06:33:50.881Z,98217.28
2022-10-23T06:36:17.896Z,98228.44
2022-10-23T06:38:44.972Z,98225.44
2022-10-23T06:41:20.416Z,98231.59
2022-10-23T06:43:48.873Z,98232.06
2022-10-23T06:46:16.629Z,98224.09
2022-10-23T06:48:44.095Z,98219.13
2022-10-23T06:51:13.423Z,98223.56
2022-10-23T06:53:40.815Z,98224.03
2022-10-23T06:56:08.509Z,98233.44
2022-10-23T06:58:37.379Z,98233.91
2022-10-23T07:01:07.207Z,98234.59
2022-10-23T07:03:34.975Z,98230.84
2022-10-23T07:06:06.494Z,98237.50
2022-10-23T07:08:33.895Z,98219.84
2022-10-23T07:11:05.564Z,98219.50
2022-10-23T07:13:34.330Z,98219.41
2022-10-23T07:16:27.592Z,98208.06
2022-10-23T07:18:59.301Z,98211.44
2022-10-23T07:21:31.162Z,98215.25
2022-10-23T07:23:58.616Z,98207.38
2022-10-23T07:26:25.696Z,98209.91
2022-10-23T07:28:55.240Z,98225.38
2022-10-23T07:31:25.771Z,98233.41
2022-10-23T07:33:55.492Z,98234.91
2022-10-23T07:36:22.683Z,98224.78
2022-10-23T07:38:51.151Z,98234.00
2022-10-23T07:41:18.479Z,98227.53
2022-10-23T07:43:45.621Z,98227.78
2022-10-23T07:46:12.808Z,98220.34
2022-10-23T07:48:40.419Z,98219.59
2022-10-23T07:51:11.870Z,98210.66
2022-10-23T07:53:39.673Z,98202.94
2022-10-23T07:56:21.343Z,98203.50
2022-10-23T07:58:49.161Z,98212.44
2022-10-23T08:01:26.006Z,98198.31
2022-10-23T08:03:53.607Z,98202.84
2022-10-23T08:06:20.895Z,98209.56
2022-10-23T08:08:47.980Z,98206.06
2022-10-23T08:11:16.118Z,98201.78
2022-10-23T08:13:44.391Z,98191.84
2022-10-23T08:16:11.967Z,98184.59
2022-10-23T08:18:40.978Z,98183.59
2022-10-23T08:21:08.432Z,98180.25
2022-10-23T08:23:35.442Z,98176.88
2022-10-23T08:26:05.296Z,98170.78
2022-10-23T08:28:33.086Z,98177.53
2022-10-23T08:31:10.547Z,98164.78
2022-10-23T08:33:38.401Z,98171.28
2022-10-23T08:36:06.274Z,98172.50
2022-10-23T08:38:33.929Z,98171.47
2022-10-23T08:41:02.719Z,98169.13
2022-10-23T08:43:39.007Z,98163.63
2022-10-23T08:46:14.582Z,98170.13
2022-10-23T08:48:46.926Z,98169.78
2022-10-23T08:51:26.566Z,98165.34
2022-10-23T08:54:23.675Z,98170.53
2022-10-23T08:56:58.712Z,98164.81
2022-10-23T08:59:32.840Z,98176.22
2022-10-23T09:02:22.412Z,98177.84
2022-10-23T09:04:52.004Z,98174.16
2022-10-23T09:07:48.060Z,98170.44
2022-10-23T09:10:36.940Z,98173.75
2022-10-23T09:13:26.649Z,98178.91
2022-10-23T09:16:13.812Z,98167.84
2022-10-23T09:18:41.968Z,98174.78
2022-10-23T09:21:10.098Z,98170.53
2022-10-23T09:23:37.891Z,98164.06
2022-10-23T09:26:13.212Z,98164.03
2022-10-23T09:28:57.521Z,98165.81
2022-10-23T09:31:24.568Z,98162.28
2022-10-23T09:34:01.463Z,98166.31
2022-10-23T09:36:29.798Z,98170.91
2022-10-23T09:38:59.027Z,98161.63
2022-10-23T09:41:39.754Z,98157.19
2022-10-23T09:44:29.729Z,98155.84
2022-10-23T09:47:11.167Z,98156.53
2022-10-23T09:49:40.424Z,98150.78
2022-10-23T09:52:10.143Z,98152.91
2022-10-23T09:54:39.664Z,98148.38
2022-10-23T09:57:23.788Z,98150.84
2022-10-23T09:59:56.167Z,98149.16
2022-10-23T10:02:36.815Z,98136.63
2022-10-23T10:05:24.006Z,98140.72
2022-10-23T10:08:06.984Z,98134.44
2022-10-23T10:10:41.120Z,98128.88
2022-10-23T10:13:36.571Z,98135.97
2022-10-23T10:16:09.209Z,98138.25
2022-10-23T10:18:53.055Z,98133.63
2022-10-23T10:21:57.871Z,98126.41
2022-10-23T10:25:02.675Z,98116.41
2022-10-23T10:28:03.680Z,98106.78
2022-10-23T10:30:45.145Z,98102.44
2022-10-23T10:33:21.539Z,98093.53
2022-10-23T10:36:20.923Z,98088.13
2022-10-23T10:38:50.715Z,98089.75
2022-10-23T10:41:30.058Z,98096.31
2022-10-23T10:44:22.459Z,98099.41
2022-10-23T10:46:55.181Z,98091.22
2022-10-23T10:49:46.878Z,98082.31
2022-10-23T10:52:22.294Z,98077.47
2022-10-23T10:55:17.226Z,98080.84
2022-10-23T10:57:47.456Z,98084.81
2022-10-23T11:00:23.408Z,98081.13
2022-10-23T11:02:59.021Z,98083.75
2022-10-23T11:05:33.236Z,98084.63
2022-10-23T11:08:10.387Z,98083.63
2022-10-23T11:10:41.781Z,98071.34
2022-10-23T11:13:38.964Z,98060.09
2022-10-23T11:16:13.265Z,98059.22
2022-10-23T11:18:45.365Z,98053.81
2022-10-23T11:21:35.049Z,98052.50
2022-10-23T11:24:11.251Z,98053.09
2022-10-23T11:26:56.127Z,98051.91
2022-10-23T11:29:30.738Z,98052.94
2022-10-23T11:32:20.695Z,98048.25
2022-10-23T11:35:24.542Z,98045.22
2022-10-23T11:38:16.167Z,98042.28
2022-10-23T11:43:55.390Z,98029.41
2022-10-23T11:46:25.466Z,98027.97
2022-10-23T11:48:54.599Z,98021.09
2022-10-23T11:51:33.473Z,98020.22
2022-10-23T11:54:16.382Z,98004.13
2022-10-23T11:57:10.905Z,98007.66
2022-10-23T11:59:53.413Z,97996.25
2022-10-23T12:02:38.069Z,97997.84
2022-10-23T12:05:25.722Z,97997.72
2022-10-23T12:07:57.907Z,98000.94
2022-10-23T12:10:50.641Z,97992.44
2022-10-23T12:13:50.195Z,97992.31
2022-10-23T12:16:17.294Z,97991.72
2022-10-23T12:19:18.531Z,97985.56
2022-10-23T12:21:46.322Z,97986.69
2022-10-23T12:24:34.777Z,97982.31
2022-10-23T12:27:11.324Z,97978.97
2022-10-23T12:30:09.959Z,97978.38
2022-10-23T12:32:40.345Z,97978.78
2022-10-23T12:35:19.761Z,97983.56
2022-10-23T12:38:16.317Z,97980.75
2022-10-23T12:40:51.649Z,97972.00
2022-10-23T12:43:31.353Z,97977.97
2022-10-23T12:46:04.582Z,97969.50
2022-10-23T12:48:32.971Z,97969.06
2022-10-23T12:51:00.017Z,97959.44
2022-10-23T12:53:27.495Z,97963.38
2022-10-23T12:56:01.433Z,97952.88
2022-10-23T12:58:31.994Z,97952.28
2022-10-23T13:01:02.030Z,97942.09
2022-10-23T13:03:30.954Z,97925.31
2022-10-23T13:05:58.852Z,97936.53
2022-10-23T13:08:32.301Z,97941.34
2022-10-23T13:10:59.851Z,97929.69
2022-10-23T13:13:26.957Z,97933.78
2022-10-23T13:15:54.036Z,97936.41
2022-10-23T13:18:21.103Z,97943.97
2022-10-23T13:20:51.195Z,97939.75
2022-10-23T13:23:34.889Z,97939.59
2022-10-23T13:26:21.481Z,97934.78
2022-10-23T13:28:48.624Z,97931.59
2022-10-23T13:31:15.621Z,97931.00
2022-10-23T13:33:48.302Z,97929.69
2022-10-23T13:36:15.317Z,97917.16
2022-10-23T13:38:58.567Z,97910.88
2022-10-23T13:41:27.044Z,97913.19
2022-10-23T13:43:54.092Z,97910.84
2022-10-23T13:46:23.713Z,97905.75
2022-10-23T13:48:51.268Z,97896.53
2022-10-23T13:51:23.408Z,97901.94
2022-10-23T13:53:51.243Z,97906.59
2022-10-23T13:56:20.578Z,97901.06
2022-10-23T13:58:48.461Z,97902.38
2022-10-23T14:01:33.805Z,97891.13
2022-10-23T14:04:00.924Z,97886.16
2022-10-23T14:06:27.984Z,97882.66
2022-10-23T14:08:55.009Z,97893.75
2022-10-23T14:11:22.660Z,97890.38
2022-10-23T14:13:50.089Z,97889.66
2022-10-23T14:16:19.239Z,97888.66
2022-10-23T14:18:46.489Z,97896.94
2022-10-23T14:21:15.774Z,97892.28
2022-10-23T14:23:42.860Z,97884.72
2022-10-23T14:26:11.853Z,97879.03
2022-10-23T14:28:38.917Z,97878.13
2022-10-23T14:31:07.884Z,97859.16
2022-10-23T14:33:34.938Z,97863.09
2022-10-23T14:36:01.993Z,97854.03
2022-10-23T14:38:29.453Z,97860.31
2022-10-23T14:40:56.537Z,97859.59
2022-10-23T14:43:24.319Z,97858.09
2022-10-23T14:45:51.666Z,97858.53
2022-10-23T14:48:18.968Z,97844.22
2022-10-23T14:50:48.396Z,97842.47
2022-10-23T14:53:15.835Z,97844.78
2022-10-23T14:55:42.917Z,97843.00
2022-10-23T14:58:09.994Z,97831.06
2022-10-23T15:00:37.051Z,97837.75
2022-10-23T15:03:04.128Z,97831.16
2022-10-23T15:05:31.325Z,97840.63
2022-10-23T15:07:59.087Z,97829.25
2022-10-23T15:10:26.158Z,97821.19
2022-10-23T15:12:53.208Z,97822.78
2022-10-23T15:15:20.277Z,97833.53
2022-10-23T15:17:47.327Z,97841.53
2022-10-23T15:20:14.450Z,97852.41
2022-10-23T15:22:41.645Z,97841.06
2022-10-23T15:25:09.181Z,97828.38
2022-10-23T15:27:37.650Z,97824.72
2022-10-23T15:30:05.082Z,97838.97
2022-10-23T15:32:32.159Z,97835.13
2022-10-23T15:35:00.074Z,97833.69
2022-10-23T15:37:27.192Z,97836.88
2022-10-23T15:39:57.194Z,97831.75
2022-10-23T15:42:26.772Z,97830.13
2022-10-23T15:44:54.056Z,97831.25
2022-10-23T15:47:21.177Z,97828.69
2022-10-23T15:49:48.398Z,97819.28
2022-10-23T15:52:15.516Z,97813.59
2022-10-23T15:54:42.587Z,97810.50
2022-10-23T15:57:09.984Z,97798.56
2022-10-23T15:59:37.045Z,97804.53
2022-10-23T16:02:04.174Z,97806.22
2022-10-23T16:04:31.422Z,97813.63
2022-10-23T16:06:58.497Z,97809.97
2022-10-23T16:09:25.701Z,97808.19
2022-10-23T16:11:52.774Z,97800.31
2022-10-23T16:14:20.009Z,97791.56
2022-10-23T16:16:47.050Z,97798.94
2022-10-23T16:19:14.267Z,97791.78
2022-10-23T16:21:41.639Z,97787.97
2022-10-23T16:24:09.016Z,97776.38
2022-10-23T16:26:36.799Z,97785.19
2022-10-23T16:29:06.519Z,97784.97
2022-10-23T16:31:33.945Z,97785.19
2022-10-23T16:34:01.549Z,97773.25
2022-10-23T16:36:29.454Z,97777.00
2022-10-23T16:38:56.546Z,97767.81
2022-10-23T16:41:23.923Z,97765.47
2022-10-23T16:43:51.098Z,97761.56
2022-10-23T16:46:19.854Z,97764.03
2022-10-23T16:48:47.641Z,97765.16
2022-10-23T16:51:17.145Z,97758.00
2022-10-23T16:53:45.042Z,97759.31
2022-10-23T16:56:15.271Z,97765.94
2022-10-23T16:58:42.988Z,97761.56
2022-10-23T17:01:19.872Z,97755.72
2022-10-23T17:03:49.142Z,97759.06
2022-10-23T17:06:20.667Z,97764.56
2022-10-23T17:08:48.077Z,97757.00
2022-10-23T17:11:21.355Z,97760.13
2022-10-23T17:13:55.169Z,97745.00
2022-10-23T17:16:35.339Z,97746.81
2022-10-23T17:19:08.353Z,97760.63
2022-10-23T17:21:40.217Z,97758.41
2022-10-23T17:24:08.069Z,97744.84
2022-10-23T17:26:35.664Z,97739.56
2022-10-23T17:29:05.824Z,97742.56
2022-10-23T17:31:34.824Z,97738.19
2022-10-23T17:34:04.902Z,97742.56
2022-10-23T17:36:34.943Z,97739.63
2022-10-23T17:39:04.623Z,97735.25
2022-10-23T17:41:32.148Z,97732.97
2022-10-23T17:43:59.885Z,97745.50
2022-10-23T17:46:27.615Z,97731.84
2022-10-23T17:48:57.688Z,97732.00
2022-10-23T17:51:27.342Z,97728.84
2022-10-23T17:53:56.104Z,97726.63
2022-10-23T17:56:27.164Z,97733.63
2022-10-23T17:58:56.586Z,97722.41
2022-10-23T18:01:25.309Z,97715.59
2022-10-23T18:03:53.448Z,97725.19
2022-10-23T18:06:25.846Z,97729.25
2022-10-23T18:08:56.488Z,97726.81
2022-10-23T18:11:30.024Z,97731.78
2022-10-23T18:16:30.510Z,97706.19
2022-10-23T18:18:59.774Z,97705.28
2022-10-23T18:21:26.911Z,97705.13
2022-10-23T18:23:54.232Z,97693.34
2022-10-23T18:26:26.504Z,97689.84
2022-10-23T18:28:59.204Z,97686.22
2022-10-23T18:31:29.640Z,97683.28
2022-10-23T18:33:58.468Z,97682.22
2022-10-23T18:36:27.923Z,97670.47
2022-10-23T18:41:28.081Z,97682.63
2022-10-23T18:43:55.149Z,97682.47
2022-10-23T18:46:22.328Z,97679.13
2022-10-23T18:48:52.680Z,97673.94
2022-10-23T18:51:28.445Z,97675.97
2022-10-23T18:53:55.915Z,97673.78
2022-10-23T18:56:26.096Z,97674.53
2022-10-23T19:01:31.044Z,97672.81
2022-10-23T19:03:59.487Z,97661.75
2022-10-23T19:06:27.667Z,97662.81
2022-10-23T19:08:55.740Z,97666.31
2022-10-23T19:11:24.009Z,97662.25
2022-10-23T19:13:51.117Z,97665.34
2022-10-23T19:16:28.076Z,97656.28
2022-10-23T19:18:59.576Z,97651.09
2022-10-23T19:21:31.474Z,97643.69
2022-10-23T19:24:02.311Z,97643.13
2022-10-23T19:26:30.826Z,97630.38
2022-10-23T19:28:58.117Z,97616.72
2022-10-23T19:31:28.065Z,97621.66
2022-10-23T19:33:55.137Z,97618.91
2022-10-23T19:36:23.444Z,97616.88
2022-10-23T19:38:51.109Z,97617.03
2022-10-23T19:41:18.889Z,97617.63
2022-10-23T19:43:46.142Z,97610.88
2022-10-23T19:46:13.214Z,97604.63
2022-10-23T19:48:44.432Z,97593.41
2022-10-23T19:51:15.349Z,97595.88
2022-10-23T19:53:42.884Z,97591.94
2022-10-23T19:56:11.755Z,97594.56
2022-10-23T19:58:39.094Z,97598.22
2022-10-23T20:01:07.978Z,97598.38
2022-10-23T20:03:35.088Z,97587.34
2022-10-23T20:06:02.199Z,97595.03
2022-10-23T20:08:32.682Z,97589.53
2022-10-23T20:11:02.113Z,97589.53
2022-10-23T20:13:29.176Z,97586.91
2022-10-23T20:15:56.365Z,97613.38
2022-10-23T20:18:23.470Z,97606.72
2022-10-23T20:20:50.510Z,97614.00
2022-10-23T20:23:17.617Z,97616.22
2022-10-23T20:25:44.708Z,97612.88
2022-10-23T20:28:14.426Z,97601.97
2022-10-23T20:30:44.011Z,97624.94
2022-10-23T20:33:11.673Z,97622.91
2022-10-23T20:35:43.005Z,97618.88
2022-10-23T20:38:10.184Z,97623.81
2022-10-23T20:40:37.569Z,97624.94
2022-10-23T20:43:04.768Z,97630.56
2022-10-23T20:45:32.003Z,97629.84
2022-10-23T20:47:59.088Z,97634.81
2022-10-23T20:50:26.139Z,97659.50
2022-10-23T20:52:53.219Z,97676.41
2022-10-23T20:55:20.297Z,97681.59
2022-10-23T20:57:47.564Z,97696.81
2022-10-23T21:00:15.593Z,97702.59
2022-10-23T21:02:45.778Z,97715.94
2022-10-23T21:05:14.354Z,97716.09
2022-10-23T21:07:41.381Z,97716.75
2022-10-23T21:10:08.712Z,97721.75
2022-10-23T21:12:35.772Z,97729.94
2022-10-23T21:15:02.847Z,97736.41
2022-10-23T21:17:35.213Z,97737.22
2022-10-23T21:20:02.769Z,97747.25
2022-10-23T21:22:30.009Z,97750.97
2022-10-23T21:24:58.407Z,97747.16
2022-10-23T21:27:25.886Z,97750.34
2022-10-23T21:29:52.969Z,97759.75
2022-10-23T21:32:20.831Z,97755.75
2022-10-23T21:34:47.956Z,97766.78
2022-10-23T21:37:15.402Z,97758.00
2022-10-23T21:39:43.470Z,97765.38
2022-10-23T21:42:12.125Z,97767.28
2022-10-23T21:44:39.464Z,97772.78
2022-10-23T21:47:07.011Z,97749.09
2022-10-23T21:49:34.113Z,97744.13
2022-10-23T21:52:01.179Z,97751.34
2022-10-23T21:54:28.276Z,97744.19
2022-10-23T21:56:55.418Z,97730.63
2022-10-23T21:59:28.896Z,97733.94
2022-10-23T22:01:58.846Z,97745.91
2022-10-23T22:04:26.083Z,97755.28
2022-10-23T22:06:53.591Z,97751.25
2022-10-23T22:09:21.523Z,97745.19
2022-10-23T22:11:50.161Z,97740.78
2022-10-23T22:14:17.498Z,97742.84
2022-10-23T22:16:44.606Z,97752.06
2022-10-23T22:19:13.486Z,97755.38
2022-10-23T22:21:41.166Z,97745.09
2022-10-23T22:24:09.081Z,97730.63
2022-10-23T22:26:38.842Z,97717.44
2022-10-23T22:29:08.720Z,97707.34
2022-10-23T22:31:36.373Z,97737.31
2022-10-23T22:34:18.717Z,97737.69
2022-10-23T22:36:56.157Z,97724.66
2022-10-23T22:39:23.418Z,97730.88
2022-10-23T22:41:50.718Z,97720.59
2022-10-23T22:44:18.490Z,97716.56
2022-10-23T22:46:46.499Z,97711.97
2022-10-23T22:49:13.584Z,97727.22
2022-10-23T22:51:40.882Z,97721.88
2022-10-23T22:54:08.021Z,97722.03
2022-10-23T22:56:35.511Z,97720.25
2022-10-23T22:59:03.310Z,97719.50
2022-10-23T23:01:45.721Z,97731.28
2022-10-23T23:04:36.874Z,97732.00
2022-10-23T23:07:09.646Z,97732.56
2022-10-23T23:09:39.023Z,97732.38
2022-10-23T23:12:08.647Z,97743.78
2022-10-23T23:14:36.641Z,97736.81
2022-10-23T23:17:05.545Z,97732.03
2022-10-23T23:19:32.688Z,97731.66
2022-10-23T23:22:00.350Z,97735.38
2022-10-23T23:24:27.578Z,97724.19
2022-10-23T23:26:54.656Z,97719.44
2022-10-23T23:29:21.875Z,97716.31
2022-10-23T23:31:48.936Z,97719.06
2022-10-23T23:34:16.002Z,97715.88
2022-10-23T23:36:43.119Z,97713.78
2022-10-23T23:39:10.346Z,97715.16
2022-10-23T23:41:37.630Z,97709.34
2022-10-23T23:44:05.337Z,97717.50
2022-10-23T23:46:32.847Z,97725.19
2022-10-23T23:49:00.018Z,97719.88
2022-10-23T23:51:27.151Z,97710.84
2022-10-23T23:53:54.377Z,97709.25
2022-10-23T23:56:21.960Z,97710.22
2022-10-23T23:58:50.923Z,97713.09
